createdAt,value
2022-11-19T00:01:51.728Z,-0.08
2022-11-19T00:06:48.135Z,-0.14
2022-11-19T00:12:02.737Z,-0.11
2022-11-19T00:16:59.058Z,-0.18
2022-11-19T00:21:55.396Z,-0.19
2022-11-19T00:26:51.735Z,-0.18
2022-11-19T00:31:48.062Z,-0.12
2022-11-19T00:36:44.466Z,-0.20
2022-11-19T00:41:40.807Z,-0.12
2022-11-19T00:46:37.247Z,-0.13
2022-11-19T00:51:33.697Z,-0.17
2022-11-19T00:56:30.956Z,-0.16
2022-11-19T01:01:27.404Z,-0.18
2022-11-19T01:06:25.496Z,-0.21
2022-11-19T01:11:28.309Z,-0.16
2022-11-19T01:16:28.173Z,-0.21
2022-11-19T01:21:28.091Z,-0.17
2022-11-19T01:26:25.232Z,-0.21
2022-11-19T01:31:27.525Z,-0.22
2022-11-19T01:36:26.201Z,-0.24
2022-11-19T01:41:25.478Z,-0.24
2022-11-19T01:46:24.195Z,-0.24
2022-11-19T01:51:29.443Z,-0.24
2022-11-19T01:56:27.059Z,-0.25
2022-11-19T02:01:23.924Z,-0.25
2022-11-19T02:06:20.961Z,-0.26
2022-11-19T02:11:35.523Z,-0.27
2022-11-19T02:16:44.908Z,-0.25
2022-11-19T02:22:01.704Z,-0.39
2022-11-19T02:27:19.536Z,-0.31
2022-11-19T02:32:27.661Z,-0.41
2022-11-19T02:37:30.346Z,-0.45
2022-11-19T02:42:59.086Z,-0.49
2022-11-19T02:48:05.159Z,-0.45
2022-11-19T02:53:04.251Z,-0.50
2022-11-19T02:58:10.851Z,-0.57
2022-11-19T03:03:33.334Z,-0.51
2022-11-19T03:08:29.874Z,-0.52
2022-11-19T03:14:12.556Z,-0.53
2022-11-19T03:19:48.059Z,-0.53
2022-11-19T03:24:50.622Z,-0.57
2022-11-19T03:29:51.038Z,-0.61
2022-11-19T03:34:50.851Z,-0.79
2022-11-19T03:39:50.510Z,-0.92
2022-11-19T03:44:51.812Z,-0.92
2022-11-19T03:49:57.109Z,-1.06
2022-11-19T03:54:53.536Z,-1.17
2022-11-19T03:59:49.948Z,-1.25
2022-11-19T04:04:46.262Z,-1.35
2022-11-19T04:09:43.305Z,-1.57
2022-11-19T04:14:39.675Z,-1.69
2022-11-19T04:19:36.090Z,-1.76
2022-11-19T04:24:32.460Z,-1.86
2022-11-19T04:29:28.796Z,-1.90
2022-11-19T04:34:25.109Z,-1.93
2022-11-19T04:39:21.909Z,-2.01
2022-11-19T04:44:18.389Z,-2.13
2022-11-19T04:49:14.776Z,-2.20
2022-11-19T04:54:11.204Z,-2.26
2022-11-19T04:59:07.803Z,-2.29
2022-11-19T05:04:04.314Z,-2.28
2022-11-19T05:09:00.923Z,-2.37
2022-11-19T05:13:57.321Z,-2.41
2022-11-19T05:18:53.650Z,-2.51
2022-11-19T05:23:50.013Z,-2.58
2022-11-19T05:28:46.367Z,-2.65
2022-11-19T05:33:42.777Z,-2.59
2022-11-19T05:38:40.978Z,-2.73
2022-11-19T05:43:37.362Z,-2.75
2022-11-19T05:48:33.693Z,-2.86
2022-11-19T05:53:30.100Z,-2.85
2022-11-19T05:58:26.440Z,-2.89
2022-11-19T06:03:22.883Z,-2.92
2022-11-19T06:08:19.313Z,-3.00
2022-11-19T06:13:15.737Z,-3.06
2022-11-19T06:18:12.150Z,-3.11
2022-11-19T06:23:08.641Z,-3.11
2022-11-19T06:28:05.289Z,-3.15
2022-11-19T06:33:01.636Z,-3.22
2022-11-19T06:37:57.988Z,-3.37
2022-11-19T06:42:54.396Z,-3.39
2022-11-19T06:47:51.152Z,-3.39
2022-11-19T06:52:47.520Z,-3.43
2022-11-19T06:57:43.952Z,-3.48
2022-11-19T07:02:41.031Z,-3.52
2022-11-19T07:07:37.568Z,-3.55
2022-11-19T07:12:34.027Z,-3.63
2022-11-19T07:17:30.509Z,-3.61
2022-11-19T07:22:27.503Z,-3.56
2022-11-19T07:27:24.148Z,-3.49
2022-11-19T07:32:20.876Z,-3.41
2022-11-19T07:37:17.242Z,-3.38
2022-11-19T07:42:32.298Z,-3.28
2022-11-19T07:47:28.855Z,-3.21
2022-11-19T07:52:25.426Z,-3.10
2022-11-19T07:57:27.221Z,-2.92
2022-11-19T08:02:26.457Z,-2.85
2022-11-19T08:07:23.087Z,-2.76
2022-11-19T08:12:19.848Z,-2.74
2022-11-19T08:17:35.029Z,-2.65
2022-11-19T08:22:31.391Z,-2.52
2022-11-19T08:27:27.730Z,-2.42
2022-11-19T08:32:24.087Z,-2.31
2022-11-19T08:37:20.995Z,-2.31
2022-11-19T08:42:35.916Z,-2.21
2022-11-19T08:47:32.262Z,-2.09
2022-11-19T08:52:28.616Z,-2.04
2022-11-19T08:57:24.949Z,-1.93
2022-11-19T09:02:21.420Z,-1.91
2022-11-19T09:07:18.048Z,-1.97
2022-11-19T09:12:14.416Z,-1.73
2022-11-19T09:17:10.754Z,-1.65
2022-11-19T09:22:07.104Z,-1.39
2022-11-19T09:27:03.860Z,-1.28
2022-11-19T09:32:00.181Z,-1.16
2022-11-19T09:36:58.356Z,-1.07
2022-11-19T09:41:54.761Z,-0.87
2022-11-19T09:47:06.834Z,-0.80
2022-11-19T09:52:14.669Z,-0.75
2022-11-19T09:57:16.438Z,-0.69
2022-11-19T10:02:31.213Z,-0.51
2022-11-19T10:07:43.775Z,-0.33
2022-11-19T10:12:52.302Z,-0.19
2022-11-19T10:18:13.374Z,-0.11
2022-11-19T10:23:28.525Z,-0.23
2022-11-19T10:28:30.189Z,-0.23
2022-11-19T10:33:35.517Z,-0.13
2022-11-19T10:38:51.275Z,-0.11
2022-11-19T10:43:55.565Z,-0.03
2022-11-19T10:48:56.187Z,0.07
2022-11-19T10:53:55.182Z,0.12
2022-11-19T10:58:56.450Z,0.13
2022-11-19T11:04:18.263Z,0.31
2022-11-19T11:09:28.680Z,0.52
2022-11-19T11:14:44.079Z,0.55
2022-11-19T11:19:40.527Z,0.59
2022-11-19T11:24:38.771Z,0.72
2022-11-19T11:29:35.239Z,0.96
2022-11-19T11:34:43.780Z,1.11
2022-11-19T11:39:44.157Z,1.03
2022-11-19T11:44:50.970Z,1.18
2022-11-19T11:49:56.884Z,1.39
2022-11-19T11:55:06.006Z,1.39
2022-11-19T12:00:24.617Z,1.23
2022-11-19T12:05:21.233Z,1.00
2022-11-19T12:10:26.471Z,0.84
2022-11-19T12:15:38.251Z,0.81
2022-11-19T12:20:52.793Z,0.76
2022-11-19T12:26:17.314Z,0.67
2022-11-19T12:31:24.222Z,0.76
2022-11-19T12:36:30.987Z,0.84
2022-11-19T12:41:45.547Z,0.62
2022-11-19T12:46:49.924Z,0.88
2022-11-19T12:52:00.049Z,1.05
2022-11-19T12:57:14.311Z,1.12
2022-11-19T13:02:21.483Z,1.02
2022-11-19T13:07:27.291Z,1.15
2022-11-19T13:12:32.682Z,1.16
2022-11-19T13:17:38.001Z,1.29
2022-11-19T13:22:41.038Z,1.22
2022-11-19T13:27:37.828Z,1.14
2022-11-19T13:33:14.484Z,1.09
2022-11-19T13:38:29.676Z,1.11
2022-11-19T13:43:44.771Z,1.08
2022-11-19T13:48:53.867Z,1.04
2022-11-19T13:53:50.493Z,1.02
2022-11-19T13:58:49.865Z,0.94
2022-11-19T14:04:25.143Z,1.05
2022-11-19T14:09:29.271Z,0.93
2022-11-19T14:14:53.147Z,0.86
2022-11-19T14:20:11.732Z,0.77
2022-11-19T14:25:27.799Z,0.72
2022-11-19T14:31:00.363Z,0.68
2022-11-19T14:35:56.901Z,0.71
2022-11-19T14:41:04.250Z,0.66
2022-11-19T14:46:09.078Z,0.57
2022-11-19T14:51:14.753Z,0.41
2022-11-19T14:56:13.383Z,0.28
2022-11-19T15:01:20.529Z,0.22
2022-11-19T15:06:18.960Z,0.16
2022-11-19T15:11:16.377Z,-0.04
2022-11-19T15:16:21.914Z,-0.20
2022-11-19T15:21:32.690Z,-0.43
2022-11-19T15:26:35.020Z,-0.56
2022-11-19T15:32:13.614Z,-0.65
2022-11-19T15:37:19.960Z,-0.71
2022-11-19T15:42:25.352Z,-0.86
2022-11-19T15:47:28.862Z,-0.90
2022-11-19T15:52:31.882Z,-1.03
2022-11-19T15:57:28.441Z,-1.00
2022-11-19T16:02:37.406Z,-1.19
2022-11-19T16:07:34.279Z,-1.42
2022-11-19T16:12:49.058Z,-1.49
2022-11-19T16:17:48.752Z,-1.65
2022-11-19T16:22:58.326Z,-1.69
2022-11-19T16:27:58.443Z,-1.86
2022-11-19T16:32:59.790Z,-1.80
2022-11-19T16:37:58.413Z,-1.75
2022-11-19T16:42:59.505Z,-2.00
2022-11-19T16:47:57.220Z,-2.08
2022-11-19T16:52:54.576Z,-2.05
2022-11-19T16:57:54.345Z,-2.21
2022-11-19T17:02:51.762Z,-2.35
2022-11-19T17:08:05.841Z,-2.39
2022-11-19T17:13:15.630Z,-2.74
2022-11-19T17:18:15.015Z,-2.80
2022-11-19T17:23:17.032Z,-2.88
2022-11-19T17:28:25.964Z,-2.83
2022-11-19T17:33:24.328Z,-2.63
2022-11-19T17:38:24.396Z,-2.88
2022-11-19T17:43:42.995Z,-3.12
2022-11-19T17:48:41.472Z,-3.17
2022-11-19T17:53:37.880Z,-3.28
2022-11-19T17:58:34.263Z,-3.19
2022-11-19T18:03:30.684Z,-3.33
2022-11-19T18:08:27.056Z,-3.42
2022-11-19T18:13:26.768Z,-3.41
2022-11-19T18:18:23.585Z,-3.58
2022-11-19T18:23:19.988Z,-3.65
2022-11-19T18:28:16.968Z,-3.60
2022-11-19T18:33:13.630Z,-3.57
2022-11-19T18:38:10.049Z,-3.56
2022-11-19T18:43:25.464Z,-3.58
2022-11-19T18:48:22.120Z,-3.50
2022-11-19T18:53:18.579Z,-3.58
2022-11-19T18:58:15.339Z,-3.65
2022-11-19T19:03:13.195Z,-3.55
2022-11-19T19:08:09.586Z,-3.67
2022-11-19T19:13:06.124Z,-3.73
2022-11-19T19:18:07.572Z,-3.69
2022-11-19T19:23:04.453Z,-3.81
2022-11-19T19:28:00.841Z,-3.78
2022-11-19T19:32:57.218Z,-3.97
2022-11-19T19:37:53.603Z,-3.98
2022-11-19T19:42:49.955Z,-4.19
2022-11-19T19:47:46.417Z,-4.17
2022-11-19T19:52:42.769Z,-4.20
2022-11-19T19:57:39.143Z,-4.09
2022-11-19T20:02:35.587Z,-4.20
2022-11-19T20:07:32.007Z,-4.19
2022-11-19T20:12:48.377Z,-4.21
2022-11-19T20:17:44.750Z,-4.15
2022-11-19T20:22:41.190Z,-4.37
2022-11-19T20:27:37.624Z,-4.51
2022-11-19T20:32:34.010Z,-4.45
2022-11-19T20:37:30.375Z,-4.39
2022-11-19T20:42:45.645Z,-4.46
2022-11-19T20:47:42.029Z,-4.32
2022-11-19T20:52:38.393Z,-4.36
2022-11-19T20:57:34.820Z,-4.50
2022-11-19T21:02:31.268Z,-4.59
2022-11-19T21:07:27.716Z,-4.66
2022-11-19T21:12:24.107Z,-4.67
2022-11-19T21:17:20.614Z,-4.77
2022-11-19T21:22:16.993Z,-4.81
2022-11-19T21:27:13.379Z,-4.77
2022-11-19T21:32:09.853Z,-4.76
2022-11-19T21:37:06.263Z,-4.86
2022-11-19T21:42:02.714Z,-5.11
2022-11-19T21:46:59.124Z,-4.99
2022-11-19T21:51:55.578Z,-4.87
2022-11-19T21:56:52.140Z,-4.76
2022-11-19T22:01:54.421Z,-4.66
2022-11-19T22:06:51.268Z,-4.72
2022-11-19T22:11:47.663Z,-4.66
2022-11-19T22:16:44.357Z,-4.73
2022-11-19T22:21:40.765Z,-4.70
2022-11-19T22:26:37.189Z,-4.67
2022-11-19T22:31:33.596Z,-4.63
2022-11-19T22:36:31.185Z,-4.64
2022-11-19T22:41:27.649Z,-4.78
2022-11-19T22:46:24.230Z,-4.70
2022-11-19T22:51:23.161Z,-4.71
2022-11-19T22:56:20.488Z,-4.99
2022-11-19T23:01:21.900Z,-4.99
2022-11-19T23:06:18.631Z,-5.10
2022-11-19T23:11:37.026Z,-5.06
2022-11-19T23:16:33.820Z,-5.02
2022-11-19T23:21:30.424Z,-4.97
2022-11-19T23:26:29.517Z,-4.99
2022-11-19T23:31:29.017Z,-5.02
2022-11-19T23:36:28.453Z,-5.10
2022-11-19T23:41:24.874Z,-5.19
2022-11-19T23:46:23.840Z,-5.24
2022-11-19T23:51:22.068Z,-5.36
2022-11-19T23:56:20.382Z,-5.38
